Time;durP1;ratioP1;P1;durP2;ratioP2;P2;SDS_P1;SDS_P2;PMS_P1;PMS_P2;Temp;Humidity;BMP_temperature;BMP_pressure;BME280_temperature;BME280_humidity;BME280_pressure;Samples;Min_cycle;Max_cycle;Signal;HPM_P1;HPM_P2
2022/04/21 00:00:35;;;;;;;5.40;2.70;;;8.00;99.90;;;;;;4952560;28;20043;-87
2022/04/21 00:03:02;;;;;;;3.88;2.70;;;8.00;99.90;;;;;;4949264;28;20553;-87
2022/04/21 00:05:28;;;;;;;5.55;2.95;;;8.00;99.90;;;;;;4952083;28;20082;-87
2022/04/21 00:07:54;;;;;;;4.32;2.60;;;7.90;99.90;;;;;;4952847;28;20427;-88
2022/04/21 00:10:20;;;;;;;2.60;2.40;;;7.90;99.90;;;;;;4953027;28;20031;-87
2022/04/21 00:12:47;;;;;;;6.13;2.55;;;7.80;99.90;;;;;;4952572;28;20020;-87
2022/04/21 00:15:13;;;;;;;3.83;2.47;;;7.80;99.90;;;;;;4951600;29;20113;-87
2022/04/21 00:17:39;;;;;;;4.72;2.95;;;7.80;99.90;;;;;;4953274;28;20503;-88
2022/04/21 00:20:11;;;;;;;4.90;2.70;;;7.80;99.90;;;;;;4951575;29;20032;-86
2022/04/21 00:25:26;;;;;;;4.50;2.50;;;7.70;99.90;;;;;;4954222;28;20115;-87
2022/04/21 00:27:54;;;;;;;3.88;2.47;;;7.70;99.90;;;;;;4955387;29;20023;-87
2022/04/21 00:30:30;;;;;;;4.15;2.40;;;7.70;99.90;;;;;;4956211;28;20385;-87
2022/04/21 00:33:06;;;;;;;4.65;2.67;;;7.70;99.90;;;;;;4956317;28;20035;-87
2022/04/21 00:35:32;;;;;;;5.05;3.03;;;7.70;99.90;;;;;;4955493;29;20039;-87
2022/04/21 00:38:05;;;;;;;6.03;2.70;;;7.60;99.90;;;;;;4956116;29;20063;-88
2022/04/21 00:40:33;;;;;;;;;;;7.70;99.90;;;;;;4956502;28;20102;-87
2022/04/21 00:43:00;;;;;;;2.75;2.42;;;7.70;99.90;;;;;;4955989;29;19933;-86
2022/04/21 00:45:31;;;;;;;5.03;2.42;;;7.80;99.90;;;;;;4953625;29;20122;-86
2022/04/21 00:47:59;;;;;;;3.33;2.42;;;7.80;99.90;;;;;;4954783;29;20034;-85
2022/04/21 00:50:28;;;;;;;3.60;2.35;;;7.80;99.90;;;;;;4954412;29;20034;-87
2022/04/21 00:53:00;;;;;;;3.50;2.15;;;7.80;99.90;;;;;;4954481;29;20608;-86
2022/04/21 00:55:27;;;;;;;4.60;2.67;;;7.80;99.90;;;;;;4954061;29;20046;-86
2022/04/21 00:57:55;;;;;;;4.60;2.50;;;7.80;99.90;;;;;;4954946;28;20036;-87
2022/04/21 01:00:21;;;;;;;6.03;2.50;;;7.80;99.90;;;;;;4954226;29;20027;-86
2022/04/21 01:02:49;;;;;;;4.63;2.60;;;7.80;99.90;;;;;;4955532;29;20027;-86
2022/04/21 01:05:32;;;;;;;8.02;2.80;;;7.80;99.90;;;;;;4954120;29;20118;-87
2022/04/21 01:08:07;;;;;;;3.97;2.50;;;7.90;99.90;;;;;;4955650;29;20086;-86
2022/04/21 01:10:42;;;;;;;3.60;2.90;;;7.90;99.90;;;;;;4954400;29;20032;-86
2022/04/21 01:13:12;;;;;;;4.43;2.40;;;7.80;99.90;;;;;;4955202;29;20023;-86
2022/04/21 01:15:46;;;;;;;5.45;2.30;;;7.90;99.90;;;;;;4954243;29;20406;-86
2022/04/21 01:18:27;;;;;;;5.63;2.47;;;7.90;99.90;;;;;;4959631;28;20121;-86
2022/04/21 01:20:55;;;;;;;3.88;2.55;;;7.80;99.90;;;;;;4953485;28;20035;-86
2022/04/21 01:23:24;;;;;;;4.55;2.60;;;7.70;99.90;;;;;;4955268;28;20051;-87
2022/04/21 01:25:51;;;;;;;3.78;2.30;;;7.60;99.90;;;;;;4954820;29;20032;-85
2022/04/21 01:28:18;;;;;;;3.20;2.42;;;7.60;99.90;;;;;;4954624;29;20080;-85
2022/04/21 01:30:44;;;;;;;3.10;2.30;;;7.50;99.90;;;;;;4937468;29;20027;-85
2022/04/21 01:33:10;;;;;;;2.88;2.08;;;7.50;99.90;;;;;;4954891;29;20037;-84
2022/04/21 01:35:38;;;;;;;3.83;2.35;;;7.40;99.90;;;;;;4954311;28;20486;-85
2022/04/21 01:43:33;;;;;;;3.17;2.08;;;7.30;99.90;;;;;;4952578;29;20038;-86
2022/04/21 01:45:59;;;;;;;5.03;2.38;;;7.20;99.90;;;;;;4954472;29;20037;-85
2022/04/21 01:48:28;;;;;;;5.20;2.70;;;7.20;99.90;;;;;;4954927;29;20479;-85
2022/04/21 01:50:56;;;;;;;5.72;2.60;;;7.20;99.90;;;;;;4936736;29;20035;-86
2022/04/21 01:53:25;;;;;;;3.88;2.10;;;7.20;99.90;;;;;;4954930;29;20047;-86
2022/04/21 01:55:52;;;;;;;4.95;2.92;;;7.20;99.90;;;;;;4954032;29;20047;-86
2022/04/21 01:58:18;;;;;;;5.93;2.33;;;7.30;99.90;;;;;;4954913;29;20031;-86
2022/04/21 02:01:07;;;;;;;2.30;2.10;;;7.30;99.90;;;;;;4953802;29;20094;-86
2022/04/21 02:03:33;;;;;;;3.63;2.30;;;7.40;99.90;;;;;;4914248;29;20484;-87
2022/04/21 02:06:02;;;;;;;5.10;2.50;;;7.40;99.90;;;;;;4928287;29;20035;-85
2022/04/21 02:08:31;;;;;;;4.35;2.45;;;7.50;99.90;;;;;;4954647;29;20062;-85
2022/04/21 02:11:00;;;;;;;2.92;2.33;;;7.60;99.90;;;;;;4953990;29;20058;-85
2022/04/21 02:13:25;;;;;;;2.67;2.47;;;7.60;99.90;;;;;;4954563;29;20031;-85
2022/04/21 02:16:00;;;;;;;3.85;2.17;;;7.60;99.90;;;;;;4936561;29;20130;-85
2022/04/21 02:18:28;;;;;;;2.97;2.00;;;7.60;99.90;;;;;;4954349;29;20031;-86
2022/04/21 02:21:32;;;;;;;5.38;2.50;;;7.60;99.90;;;;;;4953015;28;20036;-84
2022/04/21 02:26:52;;;;;;;3.08;2.22;;;7.70;99.90;;;;;;4875677;29;20646;-85
2022/04/21 02:29:18;;;;;;;2.92;2.50;;;7.80;99.90;;;;;;4945003;29;20122;-85
2022/04/21 02:31:50;;;;;;;2.78;2.15;;;7.80;99.90;;;;;;4936103;29;20122;-85
2022/04/21 02:34:38;;;;;;;2.55;2.35;;;7.80;99.90;;;;;;4934993;29;20044;-86
2022/04/21 02:37:08;;;;;;;2.63;2.38;;;7.80;99.90;;;;;;4952719;29;20035;-85
2022/04/21 02:39:40;;;;;;;3.05;2.55;;;7.70;99.90;;;;;;4954198;29;20067;-86
2022/04/21 02:42:06;;;;;;;2.40;2.20;;;7.70;99.90;;;;;;4953674;29;20049;-86
2022/04/21 02:44:32;;;;;;;3.10;2.17;;;7.80;99.90;;;;;;4954267;29;20023;-87
2022/04/21 02:46:59;;;;;;;2.42;2.00;;;7.80;99.90;;;;;;4935655;28;20533;-87
2022/04/21 02:49:28;;;;;;;3.63;2.03;;;7.80;99.90;;;;;;4953122;29;20031;-86
2022/04/21 02:51:57;;;;;;;3.30;2.17;;;7.80;99.90;;;;;;4952499;29;20038;-86
2022/04/21 02:57:20;;;;;;;2.75;2.33;;;7.80;99.90;;;;;;4952694;29;20061;-87
2022/04/21 02:59:59;;;;;;;3.50;2.30;;;7.80;99.90;;;;;;4952883;29;20367;-86
2022/04/21 03:02:26;;;;;;;7.00;2.70;;;7.70;99.90;;;;;;4952473;29;20039;-87
2022/04/21 03:04:55;;;;;;;2.70;2.13;;;7.70;99.90;;;;;;4953341;29;20143;-86
2022/04/21 03:07:25;;;;;;;3.33;2.15;;;7.70;99.90;;;;;;4936071;29;20125;-86
2022/04/21 03:09:58;;;;;;;5.78;2.53;;;7.70;99.90;;;;;;4953482;29;20143;-86
2022/04/21 03:12:28;;;;;;;6.25;2.50;;;7.60;99.90;;;;;;4952250;29;20035;-86
2022/04/21 03:14:57;;;;;;;3.47;2.53;;;7.60;99.90;;;;;;4953222;29;20042;-86
2022/04/21 03:17:26;;;;;;;2.65;2.30;;;7.60;99.90;;;;;;4936039;29;20035;-86
2022/04/21 03:19:52;;;;;;;6.07;2.55;;;7.60;99.90;;;;;;4935962;29;20023;-86
2022/04/21 03:25:33;;;;;;;3.85;2.30;;;7.70;99.90;;;;;;4944315;29;20042;-85
2022/04/21 03:28:01;;;;;;;2.33;2.13;;;7.60;99.90;;;;;;4919931;29;20093;-85
2022/04/21 03:30:32;;;;;;;4.18;2.40;;;7.60;99.90;;;;;;4935819;29;20039;-86
2022/04/21 03:35:55;;;;;;;3.42;2.20;;;7.60;99.90;;;;;;4915476;29;20047;-85
2022/04/21 03:38:21;;;;;;;6.97;2.72;;;7.60;99.90;;;;;;4952154;29;20028;-86
2022/04/21 03:41:03;;;;;;;3.08;2.35;;;7.70;99.90;;;;;;4935015;29;20034;-85
2022/04/21 03:43:35;;;;;;;5.28;2.45;;;7.70;99.90;;;;;;4949173;29;20038;-86
2022/04/21 03:46:04;;;;;;;2.97;2.60;;;7.70;99.90;;;;;;4952468;29;20023;-85
2022/04/21 03:48:30;;;;;;;2.90;2.10;;;7.80;99.90;;;;;;4949013;29;20039;-87
2022/04/21 03:50:59;;;;;;;7.28;2.17;;;7.80;99.90;;;;;;4952062;29;20024;-86
2022/04/21 03:53:33;;;;;;;3.28;2.60;;;7.90;99.90;;;;;;4935982;29;20634;-86
2022/04/21 03:56:02;;;;;;;3.95;2.42;;;7.90;99.90;;;;;;4929969;29;20047;-86
2022/04/21 03:59:00;;;;;;;2.90;2.20;;;7.90;99.90;;;;;;4936016;29;20032;-86
2022/04/21 04:01:46;;;;;;;2.40;1.70;;;7.90;99.90;;;;;;4938931;29;20024;-87
2022/04/21 04:04:13;;;;;;;3.40;2.40;;;8.00;99.90;;;;;;4953000;29;20758;-87
2022/04/21 04:12:19;;;;;;;3.15;2.15;;;8.00;99.90;;;;;;4954286;29;20025;-87
2022/04/21 04:14:50;;;;;;;2.50;2.15;;;8.10;99.90;;;;;;4939312;29;20043;-86
2022/04/21 04:17:36;;;;;;;4.30;2.30;;;8.10;99.90;;;;;;4939058;29;20035;-86
2022/04/21 04:20:04;;;;;;;2.85;2.42;;;8.20;99.90;;;;;;4939356;29;20022;-87
2022/04/21 04:22:39;;;;;;;3.30;2.40;;;8.20;99.90;;;;;;4940767;29;20061;-87
2022/04/21 04:25:09;;;;;;;2.05;1.85;;;8.20;99.90;;;;;;4941344;29;20490;-86
2022/04/21 04:27:36;;;;;;;3.08;2.40;;;8.30;99.90;;;;;;4953335;29;20032;-86
2022/04/21 04:30:05;;;;;;;3.47;2.10;;;8.30;99.90;;;;;;4970801;28;20031;-86
2022/04/21 04:32:34;;;;;;;2.88;2.50;;;8.40;99.90;;;;;;4955842;28;20019;-86
2022/04/21 04:35:04;;;;;;;3.47;2.55;;;8.40;99.90;;;;;;4955376;29;20057;-85
2022/04/21 04:37:30;;;;;;;6.22;2.80;;;8.50;99.90;;;;;;4956471;28;20058;-85
2022/04/21 04:40:08;;;;;;;5.45;2.60;;;8.60;99.90;;;;;;4955893;28;20055;-86
2022/04/21 04:42:39;;;;;;;5.65;2.17;;;8.60;99.90;;;;;;4956055;29;20405;-84
2022/04/21 04:47:50;;;;;;;6.50;2.60;;;8.70;99.90;;;;;;4955347;29;20038;-87
2022/04/21 04:50:16;;;;;;;4.03;2.60;;;8.80;99.90;;;;;;4954109;29;20035;-87
2022/04/21 04:52:42;;;;;;;3.40;2.55;;;8.90;99.90;;;;;;4951706;29;20483;-87
2022/04/21 04:55:12;;;;;;;5.07;2.60;;;9.00;99.90;;;;;;4939169;29;20071;-86
2022/04/21 04:57:39;;;;;;;3.10;2.38;;;9.00;99.90;;;;;;4955313;29;20031;-89
2022/04/21 05:00:10;;;;;;;3.67;2.60;;;9.10;99.90;;;;;;4939480;29;20131;-88
2022/04/21 05:02:36;;;;;;;4.53;2.60;;;9.10;99.90;;;;;;4953149;29;20030;-87
2022/04/21 05:05:02;;;;;;;3.05;2.55;;;9.20;99.90;;;;;;4956280;28;20158;-87
2022/04/21 05:07:28;;;;;;;4.32;2.45;;;9.30;99.90;;;;;;4957380;28;20514;-88
2022/04/21 05:09:57;;;;;;;4.15;2.65;;;9.30;99.90;;;;;;4954680;29;20070;-86
2022/04/21 05:12:22;;;;;;;3.67;2.58;;;9.40;99.90;;;;;;4955170;28;20034;-87
2022/04/21 05:14:52;;;;;;;4.32;2.53;;;9.40;99.90;;;;;;4955594;29;20027;-86
2022/04/21 05:17:18;;;;;;;2.72;2.53;;;9.50;99.90;;;;;;4956581;28;20027;-86
2022/04/21 05:19:45;;;;;;;4.18;2.88;;;9.50;99.90;;;;;;4957223;28;20027;-85
2022/04/21 05:22:13;;;;;;;2.65;2.35;;;9.60;99.90;;;;;;4953929;29;20403;-86
2022/04/21 05:24:40;;;;;;;4.82;2.65;;;9.70;99.90;;;;;;4956429;29;20439;-86
2022/04/21 05:27:11;;;;;;;6.10;2.78;;;9.70;99.90;;;;;;4937410;29;20047;-85
2022/04/21 05:32:26;;;;;;;3.33;2.80;;;9.90;99.90;;;;;;4954297;29;20050;-86
2022/04/21 05:34:52;;;;;;;2.95;2.53;;;10.00;99.90;;;;;;4956533;29;20035;-87
2022/04/21 05:37:18;;;;;;;4.72;2.50;;;10.10;99.90;;;;;;4953036;29;20039;-85
2022/04/21 05:39:44;;;;;;;5.10;2.90;;;10.10;99.90;;;;;;4955091;29;20039;-86
2022/04/21 05:42:24;;;;;;;3.20;2.08;;;10.30;99.90;;;;;;4952500;29;20498;-86
2022/04/21 05:44:54;;;;;;;2.72;2.20;;;10.30;99.90;;;;;;4938967;29;20036;-86
2022/04/21 05:47:20;;;;;;;3.22;2.25;;;10.50;99.90;;;;;;4953273;29;20027;-85
2022/04/21 05:49:46;;;;;;;4.25;2.42;;;10.60;99.90;;;;;;4954939;29;20033;-86
2022/04/21 05:52:13;;;;;;;6.63;3.55;;;10.70;99.90;;;;;;4956749;29;20117;-86
2022/04/21 05:54:40;;;;;;;4.65;2.40;;;10.80;99.90;;;;;;4956180;29;20069;-86
2022/04/21 05:57:06;;;;;;;4.50;2.67;;;10.80;99.90;;;;;;4956383;29;20505;-86
2022/04/21 05:59:32;;;;;;;4.60;2.40;;;10.90;99.90;;;;;;4955902;29;20550;-85
2022/04/21 06:01:59;;;;;;;4.97;2.58;;;10.90;99.90;;;;;;4955058;29;20446;-86
2022/04/21 06:04:25;;;;;;;10.10;2.50;;;11.00;99.90;;;;;;4939101;29;20118;-86
2022/04/21 06:06:51;;;;;;;6.68;2.97;;;11.10;99.90;;;;;;4957138;29;20426;-88
2022/04/21 06:09:16;;;;;;;7.43;2.75;;;11.20;99.90;;;;;;4941120;29;20030;-86
2022/04/21 06:11:43;;;;;;;4.78;2.75;;;11.30;99.90;;;;;;4957250;29;20118;-89
2022/04/21 06:14:09;;;;;;;4.18;2.63;;;11.50;99.90;;;;;;4956831;29;20034;-87
2022/04/21 06:16:35;;;;;;;3.08;2.40;;;11.70;99.90;;;;;;4954751;29;20124;-87
2022/04/21 06:19:00;;;;;;;6.72;2.63;;;11.90;99.90;;;;;;4947202;29;20023;-79
2022/04/21 06:21:26;;;;;;;4.85;2.60;;;12.00;99.90;;;;;;4954406;29;20058;-86
2022/04/21 06:23:52;;;;;;;4.15;2.70;;;12.20;99.90;;;;;;4954448;28;20044;-85
2022/04/21 06:26:17;;;;;;;4.13;2.42;;;12.30;99.90;;;;;;4934342;29;20038;-86
2022/04/21 06:28:43;;;;;;;5.13;2.92;;;12.50;99.90;;;;;;4934112;29;20019;-86
2022/04/21 06:31:10;;;;;;;3.92;2.33;;;12.70;99.90;;;;;;4953863;29;20090;-88
2022/04/21 06:33:36;;;;;;;7.07;2.88;;;12.90;99.90;;;;;;4937537;29;20095;-85
2022/04/21 06:36:07;;;;;;;4.20;2.35;;;13.10;99.90;;;;;;4950362;29;20038;-83
2022/04/21 06:38:33;;;;;;;4.30;2.85;;;13.20;99.90;;;;;;4954008;29;20050;-86
2022/04/21 06:40:58;;;;;;;7.72;3.30;;;13.30;99.90;;;;;;4951995;29;20031;-85
2022/04/21 06:48:53;;;;;;;6.43;2.50;;;13.70;99.90;;;;;;4948654;29;20030;-83
2022/04/21 06:51:18;;;;;;;3.53;2.42;;;14.00;99.90;;;;;;4927674;29;20035;-85
2022/04/21 06:53:44;;;;;;;8.68;2.25;;;14.30;99.90;;;;;;4934198;29;20444;-83
2022/04/21 06:56:13;;;;;;;5.28;2.35;;;14.50;99.90;;;;;;4952636;29;20062;-83
2022/04/21 06:58:40;;;;;;;4.47;2.58;;;14.60;99.90;;;;;;4935919;29;20110;-83
2022/04/21 07:01:06;;;;;;;4.53;2.38;;;14.70;99.90;;;;;;4952461;29;20070;-83
2022/04/21 07:03:33;;;;;;;8.88;2.40;;;14.70;99.90;;;;;;4953112;29;20039;-82
2022/04/21 07:06:00;;;;;;;4.43;2.10;;;14.70;99.90;;;;;;4932136;29;20023;-83
2022/04/21 07:08:26;;;;;;;6.57;2.63;;;14.60;99.90;;;;;;4931632;29;20387;-81
2022/04/21 07:10:52;;;;;;;3.40;2.25;;;14.50;99.90;;;;;;4948210;29;20039;-82
2022/04/21 07:13:18;;;;;;;3.17;2.08;;;14.50;99.90;;;;;;4949936;29;20023;-82
2022/04/21 07:15:43;;;;;;;4.05;2.20;;;14.50;99.90;;;;;;4950644;29;20097;-83
2022/04/21 07:18:11;;;;;;;9.23;2.15;;;14.60;99.90;;;;;;4951974;29;20020;-82
2022/04/21 07:20:37;;;;;;;3.70;2.28;;;14.70;99.90;;;;;;4946245;29;20089;-83
2022/04/21 07:23:03;;;;;;;7.05;2.45;;;14.60;99.90;;;;;;4951447;29;20558;-83
2022/04/21 07:25:29;;;;;;;5.63;2.30;;;14.60;99.90;;;;;;4949911;29;20035;-83
2022/04/21 07:27:54;;;;;;;5.70;1.95;;;14.60;99.90;;;;;;4950135;29;20470;-82
2022/04/21 07:30:20;;;;;;;5.45;2.75;;;14.60;99.90;;;;;;4926621;29;20108;-82
2022/04/21 07:32:47;;;;;;;6.18;2.20;;;14.60;99.90;;;;;;4952429;29;20030;-83
2022/04/21 07:35:13;;;;;;;5.30;2.03;;;14.70;99.90;;;;;;4951838;29;20035;-81
2022/04/21 07:37:39;;;;;;;8.20;2.50;;;14.80;99.90;;;;;;4935322;29;20031;-82
2022/04/21 07:40:05;;;;;;;6.50;1.90;;;14.90;99.90;;;;;;4946069;29;20016;-84
2022/04/21 07:42:32;;;;;;;8.30;2.83;;;15.00;99.90;;;;;;4936414;29;20042;-83
2022/04/21 07:44:59;;;;;;;4.45;2.13;;;15.10;99.90;;;;;;4953372;29;20828;-84
2022/04/21 07:47:25;;;;;;;4.40;2.30;;;15.20;99.90;;;;;;4936347;29;20027;-84
2022/04/21 07:49:50;;;;;;;5.72;2.45;;;15.30;99.90;;;;;;4935804;29;20144;-81
2022/04/21 07:55:09;;;;;;;13.45;2.72;;;15.50;99.90;;;;;;4941730;29;20049;-91
2022/04/21 07:57:39;;;;;;;5.53;1.73;;;15.70;99.90;;;;;;4939786;29;20122;-81
2022/04/21 08:00:05;;;;;;;4.70;2.42;;;15.90;99.90;;;;;;4951874;29;20459;-80
2022/04/21 08:02:32;;;;;;;2.85;2.35;;;16.20;99.90;;;;;;4952207;29;20031;-80
2022/04/21 08:04:57;;;;;;;6.60;2.58;;;16.50;99.90;;;;;;4951784;29;20065;-81
2022/04/21 08:07:23;;;;;;;6.05;2.25;;;16.80;99.90;;;;;;4952590;29;20047;-77
2022/04/21 08:09:49;;;;;;;13.30;3.03;;;16.60;99.90;;;;;;4952816;29;20039;-85
2022/04/21 08:12:15;;;;;;;8.70;2.17;;;16.50;99.90;;;;;;4935412;29;20035;-85
2022/04/21 08:14:40;;;;;;;4.60;2.10;;;16.60;99.90;;;;;;4935993;29;20031;-84
2022/04/21 08:17:06;;;;;;;5.80;2.17;;;16.80;99.90;;;;;;4952548;29;20063;-81
2022/04/21 08:19:33;;;;;;;6.15;2.40;;;17.00;99.90;;;;;;4936620;28;20031;-80
2022/04/21 08:22:00;;;;;;;11.20;2.20;;;17.20;99.90;;;;;;4935763;29;20521;-93
2022/04/21 08:32:43;;;;;;;7.85;1.80;;;17.00;99.90;;;;;;4949496;29;20035;-83
2022/04/21 08:35:09;;;;;;;2.35;2.10;;;17.00;99.90;;;;;;4942765;29;20023;-83
2022/04/21 08:37:36;;;;;;;5.50;2.08;;;17.20;99.90;;;;;;4932796;29;20054;-82
2022/04/21 08:40:06;;;;;;;5.35;1.90;;;17.50;99.90;;;;;;4935112;29;20019;-84
2022/04/21 08:42:37;;;;;;;10.20;1.73;;;17.60;97.90;;;;;;4934793;29;20035;-83
2022/04/21 08:45:03;;;;;;;4.78;1.98;;;17.70;98.70;;;;;;4951047;28;20554;-84
2022/04/21 08:47:29;;;;;;;5.85;2.22;;;17.80;97.30;;;;;;4954627;29;20049;-83
2022/04/21 08:50:14;;;;;;;14.40;4.32;;;17.70;97.30;;;;;;4955010;29;20027;-83
2022/04/21 08:52:41;;;;;;;6.20;2.25;;;17.60;99.90;;;;;;4944838;29;20024;-83
2022/04/21 08:55:09;;;;;;;5.28;2.30;;;17.50;99.50;;;;;;4954239;29;20019;-83
2022/04/21 08:57:37;;;;;;;8.77;3.05;;;17.10;98.10;;;;;;4932179;29;20059;-83
2022/04/21 09:00:08;;;;;;;11.40;3.05;;;16.40;98.00;;;;;;4955223;29;20023;-83
2022/04/21 09:02:39;;;;;;;4.68;2.35;;;16.30;99.50;;;;;;4938047;29;20398;-83
2022/04/21 09:05:06;;;;;;;7.32;2.80;;;16.50;96.10;;;;;;4939926;29;20086;-82
2022/04/21 09:07:41;;;;;;;8.98;2.20;;;16.50;97.90;;;;;;4955288;29;20059;-83
2022/04/21 09:10:12;;;;;;;9.30;3.03;;;16.50;96.60;;;;;;4940250;29;20024;-83
2022/04/21 09:12:44;;;;;;;11.52;3.70;;;16.40;99.30;;;;;;4953018;29;20091;-83
2022/04/21 09:15:14;;;;;;;;;;;16.20;99.90;;;;;;4940720;29;20090;-84
2022/04/21 09:17:45;;;;;;;6.68;3.10;;;15.90;99.90;;;;;;4955198;29;20285;-83
2022/04/21 09:20:15;;;;;;;9.45;2.70;;;15.50;99.50;;;;;;4955018;28;20039;-82
2022/04/21 09:22:52;;;;;;;8.90;2.83;;;15.40;99.90;;;;;;4954959;29;20502;-83
2022/04/21 09:25:20;;;;;;;8.70;2.95;;;15.10;99.90;;;;;;4938536;29;20031;-83
2022/04/21 09:27:50;;;;;;;3.85;2.40;;;14.90;99.90;;;;;;4954126;29;20027;-83
2022/04/21 09:30:16;;;;;;;10.82;2.17;;;14.90;99.90;;;;;;4954841;29;20114;-84
2022/04/21 09:32:54;;;;;;;4.63;2.70;;;14.90;99.90;;;;;;4937759;29;20039;-84
2022/04/21 09:35:22;;;;;;;6.78;2.80;;;14.70;99.90;;;;;;4954896;29;20028;-85
2022/04/21 09:37:49;;;;;;;2.83;2.17;;;14.60;99.90;;;;;;4954950;29;20027;-84
2022/04/21 09:40:23;;;;;;;4.45;2.47;;;14.50;99.90;;;;;;4937603;29;20487;-85
2022/04/21 09:42:54;;;;;;;5.72;2.47;;;14.40;99.90;;;;;;4954774;29;20054;-84
2022/04/21 09:48:29;;;;;;;8.30;2.55;;;14.20;99.90;;;;;;4955216;29;20326;-85
2022/04/21 09:51:16;;;;;;;8.68;2.70;;;14.20;99.90;;;;;;4936907;29;20027;-83
2022/04/21 09:53:51;;;;;;;5.03;2.78;;;14.20;99.90;;;;;;4952760;29;20023;-85
2022/04/21 09:56:17;;;;;;;3.33;2.40;;;14.10;99.90;;;;;;4954510;29;20067;-85
2022/04/21 09:58:45;;;;;;;3.97;2.67;;;14.10;99.90;;;;;;4928254;29;20038;-84
2022/04/21 10:01:11;;;;;;;4.30;2.72;;;14.10;99.90;;;;;;4929848;29;20059;-85
2022/04/21 10:03:43;;;;;;;4.78;2.42;;;14.00;99.90;;;;;;4954623;29;20062;-84
2022/04/21 10:06:09;;;;;;;7.63;2.80;;;14.00;99.90;;;;;;4953981;29;20016;-85
2022/04/21 10:08:37;;;;;;;5.35;2.88;;;14.00;99.90;;;;;;4954641;29;20045;-86
2022/04/21 10:11:06;;;;;;;4.05;2.42;;;14.00;99.90;;;;;;4954018;29;20029;-85
2022/04/21 10:13:31;;;;;;;6.38;2.75;;;14.00;99.90;;;;;;4952306;29;20604;-85
2022/04/21 10:15:58;;;;;;;10.52;2.45;;;13.90;99.90;;;;;;4936613;29;20038;-84
2022/04/21 10:18:24;;;;;;;3.72;2.20;;;13.90;99.90;;;;;;4937367;29;20383;-88
2022/04/21 10:20:53;;;;;;;3.42;2.08;;;13.80;99.90;;;;;;4937576;29;20029;-86
2022/04/21 10:23:21;;;;;;;2.90;2.25;;;13.80;99.90;;;;;;4961745;28;20055;-83
2022/04/21 10:25:59;;;;;;;6.70;2.22;;;13.80;99.90;;;;;;4950742;29;20016;-83
2022/04/21 10:28:43;;;;;;;3.28;2.13;;;13.70;99.90;;;;;;4949688;29;20027;-84
2022/04/21 10:31:32;;;;;;;3.95;2.17;;;13.60;99.90;;;;;;4932600;29;20023;-81
2022/04/21 10:34:00;;;;;;;2.97;2.17;;;13.40;99.90;;;;;;4946088;29;20031;-80
2022/04/21 10:36:37;;;;;;;2.75;2.20;;;13.50;99.90;;;;;;4949323;29;20131;-80
2022/04/21 10:39:18;;;;;;;7.32;2.40;;;13.50;99.90;;;;;;4953119;29;20022;-81
2022/04/21 10:41:44;;;;;;;4.43;2.22;;;13.50;99.90;;;;;;4953458;29;20062;-80
2022/04/21 10:44:37;;;;;;;5.78;2.10;;;13.40;99.90;;;;;;4947111;29;20011;-80
2022/04/21 10:47:31;;;;;;;3.53;2.10;;;13.40;99.90;;;;;;4952630;29;20058;-80
2022/04/21 10:50:00;;;;;;;4.20;1.88;;;13.60;99.90;;;;;;4954277;29;20082;-80
2022/04/21 10:57:48;;;;;;;4.15;2.20;;;13.40;99.90;;;;;;4953271;29;20051;-85
2022/04/21 11:00:23;;;;;;;6.50;2.20;;;13.40;99.90;;;;;;4936346;29;20402;-80
2022/04/21 11:03:10;;;;;;;7.95;2.20;;;13.30;99.90;;;;;;4952967;29;20051;-85
2022/04/21 11:05:38;;;;;;;4.97;2.47;;;13.30;99.90;;;;;;4953401;29;20031;-83
2022/04/21 11:08:12;;;;;;;4.60;2.10;;;13.30;99.90;;;;;;4954170;28;20419;-84
2022/04/21 11:10:37;;;;;;;2.92;2.03;;;13.40;99.90;;;;;;4938913;29;20039;-82
2022/04/21 11:13:04;;;;;;;2.72;2.25;;;13.50;99.90;;;;;;4937734;29;20486;-88
2022/04/21 11:15:32;;;;;;;5.30;2.00;;;13.50;99.90;;;;;;4953272;29;20035;-83
2022/04/21 11:18:09;;;;;;;4.82;2.20;;;13.60;99.90;;;;;;4936618;29;20032;-83
2022/04/21 11:20:37;;;;;;;2.40;2.20;;;13.70;99.90;;;;;;4935727;29;20031;-82
2022/04/21 11:23:03;;;;;;;4.55;2.25;;;13.60;99.90;;;;;;4952929;29;20047;-82
2022/04/21 11:25:35;;;;;;;3.88;2.17;;;13.60;99.90;;;;;;4952408;29;20457;-82
2022/04/21 11:28:02;;;;;;;4.35;2.25;;;13.70;99.90;;;;;;4952426;29;20035;-81
2022/04/21 11:30:30;;;;;;;21.35;17.63;;;13.70;99.90;;;;;;4953570;29;20035;-80
2022/04/21 11:32:56;;;;;;;18.75;16.55;;;13.90;99.90;;;;;;4953343;29;20090;-81
2022/04/21 11:35:24;;;;;;;11.07;5.60;;;14.30;99.90;;;;;;4953663;29;20434;-88
2022/04/21 11:37:58;;;;;;;8.48;2.72;;;14.50;99.90;;;;;;4935669;29;20082;-84
2022/04/21 11:40:37;;;;;;;6.25;3.25;;;14.40;99.90;;;;;;4954620;29;20550;-85
2022/04/21 11:43:14;;;;;;;4.70;2.95;;;14.10;99.90;;;;;;4935780;29;20023;-88
2022/04/21 11:45:41;;;;;;;4.35;2.50;;;13.80;99.90;;;;;;4935184;29;20023;-86
2022/04/21 11:48:11;;;;;;;4.97;2.83;;;13.80;99.90;;;;;;4936484;29;20039;-86
2022/04/21 11:50:36;;;;;;;7.38;3.25;;;13.90;99.90;;;;;;4952793;29;20110;-84
2022/04/21 11:53:12;;;;;;;4.65;2.38;;;14.00;99.90;;;;;;4955257;29;20512;-84
2022/04/21 11:55:38;;;;;;;4.35;2.70;;;14.30;99.90;;;;;;4954168;29;20031;-86
2022/04/21 11:58:04;;;;;;;7.55;2.60;;;14.50;99.90;;;;;;4936719;29;20039;-84
2022/04/21 12:08:47;;;;;;;4.63;2.75;;;14.30;99.90;;;;;;4950820;29;20494;-86
2022/04/21 12:11:18;;;;;;;5.65;3.20;;;14.50;99.90;;;;;;4952600;29;20027;-87
2022/04/21 12:13:46;;;;;;;6.88;3.53;;;14.60;99.90;;;;;;4954687;29;20038;-85
2022/04/21 12:16:34;;;;;;;9.25;4.53;;;14.70;99.90;;;;;;4951299;29;20043;-86
2022/04/21 12:19:09;;;;;;;12.25;4.97;;;14.80;99.90;;;;;;4935065;29;20015;-89
2022/04/21 12:21:36;;;;;;;9.63;5.35;;;15.00;99.90;;;;;;4955587;28;20027;-87
2022/04/21 12:24:12;;;;;;;8.35;6.03;;;15.00;99.90;;;;;;4955621;29;20106;-84
2022/04/21 12:26:38;;;;;;;14.13;6.60;;;14.90;99.90;;;;;;4955309;29;20019;-87
2022/04/21 12:29:07;;;;;;;7.45;5.95;;;14.70;99.90;;;;;;4940023;29;20038;-87
2022/04/21 12:32:02;;;;;;;7.75;5.82;;;14.60;99.90;;;;;;4939275;29;20023;-86
2022/04/21 12:34:30;;;;;;;12.40;6.25;;;14.40;99.90;;;;;;4905909;29;20032;-88
2022/04/21 12:37:01;;;;;;;10.02;6.40;;;14.30;99.90;;;;;;4955720;29;20142;-88
2022/04/21 12:39:29;;;;;;;11.48;6.00;;;14.30;99.90;;;;;;4941210;29;20066;-85
2022/04/21 12:41:56;;;;;;;9.00;4.70;;;14.40;99.90;;;;;;4958672;29;20086;-88
2022/04/21 12:44:24;;;;;;;9.18;4.50;;;14.40;99.90;;;;;;4940836;29;20046;-87
2022/04/21 12:47:18;;;;;;;6.25;4.30;;;14.30;99.90;;;;;;4939546;29;20057;-87
2022/04/21 12:50:12;;;;;;;10.27;4.15;;;14.10;99.90;;;;;;4953847;29;20047;-87
2022/04/21 12:52:55;;;;;;;7.38;3.58;;;14.30;99.90;;;;;;4948815;29;20505;-86
2022/04/21 12:55:21;;;;;;;6.32;3.10;;;14.30;99.90;;;;;;4942623;29;20061;-86
2022/04/21 12:58:05;;;;;;;5.05;3.03;;;14.30;99.90;;;;;;4956000;29;20038;-87
2022/04/21 13:00:32;;;;;;;8.32;3.67;;;14.30;99.90;;;;;;4955385;29;20023;-87
2022/04/21 13:03:00;;;;;;;7.32;3.60;;;14.40;99.90;;;;;;4935766;29;20027;-87
2022/04/21 13:05:25;;;;;;;10.40;3.42;;;14.50;99.90;;;;;;4948679;29;20019;-88
2022/04/21 13:07:51;;;;;;;5.70;3.40;;;14.30;99.90;;;;;;4957090;29;20058;-88
2022/04/21 13:10:21;;;;;;;7.07;3.40;;;14.20;99.90;;;;;;4957316;29;20027;-87
2022/04/21 13:12:47;;;;;;;4.57;2.92;;;14.30;99.90;;;;;;4951817;29;20012;-86
2022/04/21 13:15:13;;;;;;;4.93;2.90;;;14.40;99.90;;;;;;4952284;29;20542;-83
2022/04/21 13:17:40;;;;;;;5.20;2.90;;;14.10;99.90;;;;;;4954529;29;20110;-90
2022/04/21 13:20:09;;;;;;;5.93;2.83;;;13.70;99.90;;;;;;4924923;29;20117;-83
2022/04/21 13:22:35;;;;;;;6.80;2.65;;;13.40;99.90;;;;;;4952240;29;20050;-83
2022/04/21 13:25:01;;;;;;;3.85;2.15;;;13.10;99.90;;;;;;4954970;29;20035;-86
2022/04/21 13:27:29;;;;;;;2.47;2.20;;;13.00;99.90;;;;;;4955283;29;20027;-83
2022/04/21 13:29:54;;;;;;;6.00;2.30;;;13.00;99.90;;;;;;4955699;29;20078;-85
2022/04/21 13:35:06;;;;;;;3.85;1.90;;;13.20;99.90;;;;;;4947657;29;20122;-84
2022/04/21 13:37:31;;;;;;;3.28;2.20;;;13.30;99.90;;;;;;4955065;29;20486;-84
2022/04/21 13:39:58;;;;;;;4.53;2.30;;;13.40;99.90;;;;;;4950252;29;20038;-84
2022/04/21 13:42:23;;;;;;;6.38;2.65;;;13.40;99.90;;;;;;4953477;29;20027;-84
2022/04/21 13:44:51;;;;;;;6.00;2.35;;;13.50;99.90;;;;;;4955643;29;20023;-86
2022/04/21 13:47:17;;;;;;;3.28;2.25;;;13.70;99.90;;;;;;4938246;29;20458;-84
2022/04/21 13:49:43;;;;;;;5.45;2.53;;;13.60;99.90;;;;;;4929924;29;20023;-86
2022/04/21 13:52:11;;;;;;;2.75;2.40;;;13.60;99.90;;;;;;4951563;29;21088;-86
2022/04/21 13:54:38;;;;;;;4.68;2.22;;;13.40;99.90;;;;;;4951999;29;20563;-85
2022/04/21 13:57:04;;;;;;;3.08;2.33;;;13.40;99.90;;;;;;4937078;29;20046;-81
2022/04/21 13:59:31;;;;;;;3.15;2.53;;;13.10;99.90;;;;;;4949738;29;20019;-85
2022/04/21 14:01:57;;;;;;;6.80;2.67;;;12.90;99.90;;;;;;4953077;29;20545;-85
2022/04/21 14:04:22;;;;;;;4.50;2.33;;;12.70;99.90;;;;;;4928360;29;20023;-84
2022/04/21 14:06:51;;;;;;;2.97;2.33;;;12.70;99.90;;;;;;4949898;29;20388;-88
2022/04/21 14:09:17;;;;;;;4.72;2.80;;;12.70;99.90;;;;;;4936096;29;20411;-84